createdAt,value
2019-04-30T00:01:18.714Z,13.40
2019-04-30T00:03:50.533Z,15.30
2019-04-30T00:06:21.855Z,14.33
2019-04-30T00:08:50.718Z,13.93
2019-04-30T00:11:19.825Z,16.43
2019-04-30T00:13:50.222Z,14.07
2019-04-30T00:16:19.172Z,14.47
2019-04-30T00:18:58.132Z,16.53
2019-04-30T00:21:18.931Z,14.93
2019-04-30T00:23:47.871Z,15.80
2019-04-30T00:26:17.307Z,17.00
2019-04-30T00:28:47.716Z,14.37
2019-04-30T00:31:23.490Z,16.93
2019-04-30T00:33:47.498Z,14.27
2019-04-30T00:36:17.405Z,15.53
2019-04-30T00:38:46.498Z,15.93
2019-04-30T00:41:15.633Z,17.37
2019-04-30T00:43:49.298Z,15.30
2019-04-30T00:46:17.283Z,20.00
2019-04-30T00:48:46.045Z,16.57
2019-04-30T00:51:20.997Z,17.63
2019-04-30T00:53:51.207Z,22.40
2019-04-30T00:56:19.847Z,16.77
2019-04-30T00:58:47.474Z,18.20
2019-04-30T01:01:27.561Z,16.00
2019-04-30T01:04:02.509Z,17.83
2019-04-30T01:06:31.633Z,16.53
2019-04-30T01:09:05.442Z,19.20
2019-04-30T01:11:31.218Z,22.07
2019-04-30T01:13:59.989Z,19.90
2019-04-30T01:16:32.904Z,20.33
2019-04-30T01:19:01.181Z,27.93
2019-04-30T01:21:30.336Z,18.07
2019-04-30T01:23:59.776Z,24.93
2019-04-30T01:28:49.449Z,22.30
2019-04-30T01:31:18.774Z,22.13
2019-04-30T01:33:49.155Z,20.83
2019-04-30T01:36:19.305Z,23.20
2019-04-30T01:38:51.018Z,21.93
2019-04-30T01:41:22.047Z,22.07
2019-04-30T01:43:49.739Z,22.43
2019-04-30T01:46:18.937Z,22.77
2019-04-30T01:48:51.953Z,20.67
2019-04-30T01:51:21.794Z,23.50
2019-04-30T01:53:50.378Z,22.90
2019-04-30T01:56:29.043Z,22.40
2019-04-30T01:59:11.507Z,24.70
2019-04-30T02:01:42.174Z,22.60
2019-04-30T02:04:10.936Z,24.07
2019-04-30T02:06:39.748Z,22.57
2019-04-30T02:09:09.132Z,25.67
2019-04-30T02:11:38.861Z,23.90
2019-04-30T02:14:08.996Z,24.67
2019-04-30T02:16:39.523Z,27.13
2019-04-30T02:19:09.194Z,26.00
2019-04-30T02:21:38.627Z,27.47
2019-04-30T02:24:09.000Z,27.83
2019-04-30T02:26:38.482Z,30.03
2019-04-30T02:29:09.059Z,28.47
2019-04-30T02:31:40.604Z,28.47
2019-04-30T02:34:21.785Z,26.47
2019-04-30T02:37:02.718Z,26.70
2019-04-30T02:39:31.502Z,26.17
2019-04-30T02:42:01.483Z,27.97
2019-04-30T02:44:30.714Z,25.73
2019-04-30T02:47:00.912Z,26.83
2019-04-30T02:49:31.497Z,26.47
2019-04-30T02:52:02.693Z,30.73
2019-04-30T02:54:33.167Z,27.87
2019-04-30T02:57:12.013Z,31.90
2019-04-30T03:00:00.022Z,33.27
2019-04-30T03:02:30.113Z,34.83
2019-04-30T03:05:00.219Z,31.73
2019-04-30T03:07:29.624Z,33.27
2019-04-30T03:09:59.818Z,32.20
2019-04-30T03:12:33.188Z,31.90
2019-04-30T03:15:00.462Z,32.63
2019-04-30T03:17:39.482Z,36.00
2019-04-30T03:20:35.633Z,39.53
2019-04-30T03:23:02.438Z,37.10
2019-04-30T03:25:31.426Z,39.03
2019-04-30T03:28:00.579Z,37.70
2019-04-30T03:30:31.844Z,40.07
2019-04-30T03:33:02.675Z,39.17
2019-04-30T03:35:32.220Z,39.50
2019-04-30T03:38:01.734Z,41.47
2019-04-30T03:40:30.763Z,39.03
2019-04-30T03:43:02.988Z,40.17
2019-04-30T03:45:30.343Z,41.90
2019-04-30T03:48:00.144Z,45.60
2019-04-30T03:50:41.745Z,41.70
2019-04-30T03:53:00.565Z,44.70
2019-04-30T03:55:30.028Z,41.57
2019-04-30T03:58:00.185Z,40.27
2019-04-30T04:00:42.539Z,42.17
2019-04-30T04:03:11.386Z,42.67
2019-04-30T04:05:50.682Z,42.67
2019-04-30T04:08:25.735Z,46.30
2019-04-30T04:11:04.959Z,40.87
2019-04-30T04:13:34.011Z,46.70
2019-04-30T04:16:03.034Z,40.40
2019-04-30T04:18:31.830Z,50.17
2019-04-30T04:21:11.692Z,44.43
2019-04-30T04:23:32.912Z,45.23
2019-04-30T04:26:01.881Z,50.50
2019-04-30T04:28:30.673Z,48.73
2019-04-30T04:31:00.114Z,46.93
2019-04-30T04:33:29.729Z,49.40
2019-04-30T04:35:59.792Z,44.67
2019-04-30T04:38:30.354Z,43.80
2019-04-30T04:41:02.669Z,49.73
2019-04-30T04:43:40.205Z,46.97
2019-04-30T04:46:09.454Z,46.43
2019-04-30T04:48:39.453Z,47.53
2019-04-30T04:51:19.836Z,46.90
2019-04-30T04:53:40.183Z,48.53
2019-04-30T04:56:10.127Z,42.50
2019-04-30T04:58:40.135Z,44.00
2019-04-30T05:01:11.909Z,40.93
2019-04-30T05:03:40.101Z,41.07
2019-04-30T05:06:11.466Z,40.37
2019-04-30T05:08:39.709Z,36.33
2019-04-30T05:11:09.553Z,41.73
2019-04-30T05:13:38.952Z,43.20
2019-04-30T05:16:09.197Z,41.87
2019-04-30T05:18:39.109Z,45.53
2019-04-30T05:21:08.815Z,43.10
2019-04-30T05:23:39.649Z,42.40
2019-04-30T05:26:08.468Z,39.87
2019-04-30T05:28:39.352Z,39.73
2019-04-30T05:31:08.749Z,36.87
2019-04-30T05:33:39.031Z,38.23
2019-04-30T05:36:09.306Z,34.63
2019-04-30T05:38:39.185Z,36.80
2019-04-30T05:41:09.349Z,36.57
2019-04-30T05:43:38.702Z,38.97
2019-04-30T05:46:08.367Z,42.37
2019-04-30T05:48:39.719Z,44.93
2019-04-30T05:51:08.982Z,40.40
2019-04-30T05:53:39.391Z,42.57
2019-04-30T05:56:09.463Z,40.07
2019-04-30T05:58:39.756Z,42.13
2019-04-30T06:01:09.719Z,40.00
2019-04-30T06:03:39.134Z,39.70
2019-04-30T06:06:08.816Z,36.40
2019-04-30T06:08:45.811Z,38.53
2019-04-30T06:11:19.231Z,44.03
2019-04-30T06:14:05.959Z,43.70
2019-04-30T06:16:34.914Z,33.53
2019-04-30T06:19:03.766Z,36.97
2019-04-30T06:21:32.626Z,34.70
2019-04-30T06:24:01.630Z,36.00
2019-04-30T06:26:30.925Z,34.07
2019-04-30T06:28:59.859Z,33.90
2019-04-30T06:31:34.690Z,30.93
2019-04-30T06:33:59.872Z,30.57
2019-04-30T06:36:29.029Z,30.13
2019-04-30T06:38:58.994Z,26.77
2019-04-30T06:41:29.559Z,32.63
2019-04-30T06:43:59.252Z,30.83
2019-04-30T06:46:28.684Z,29.57
2019-04-30T06:48:59.480Z,30.33
2019-04-30T06:51:30.623Z,26.93
2019-04-30T06:53:59.725Z,26.13
2019-04-30T06:56:28.961Z,28.13
2019-04-30T06:58:59.047Z,22.73
2019-04-30T07:01:29.033Z,22.70
2019-04-30T07:04:00.781Z,19.83
2019-04-30T07:06:32.296Z,21.17
2019-04-30T07:09:21.108Z,18.43
2019-04-30T07:12:00.938Z,20.40
2019-04-30T07:14:29.847Z,16.57
2019-04-30T07:16:59.434Z,15.83
2019-04-30T07:19:32.923Z,17.30
2019-04-30T07:21:59.396Z,17.70
2019-04-30T07:24:29.615Z,18.87
2019-04-30T07:27:02.583Z,17.37
2019-04-30T07:29:29.601Z,17.23
2019-04-30T07:31:59.286Z,19.53
2019-04-30T07:34:31.688Z,16.63
2019-04-30T07:39:33.373Z,27.93
2019-04-30T07:42:00.094Z,26.03
2019-04-30T07:44:33.326Z,25.90
2019-04-30T07:47:01.992Z,28.43
2019-04-30T07:49:46.475Z,36.63
2019-04-30T07:52:01.732Z,36.83
2019-04-30T07:54:31.623Z,37.20
2019-04-30T07:57:00.585Z,35.80
2019-04-30T07:59:30.166Z,37.40
2019-04-30T08:02:09.866Z,39.00
2019-04-30T08:04:51.233Z,42.50
2019-04-30T08:07:20.588Z,38.53
2019-04-30T08:09:36.849Z,16.43
2019-04-30T08:09:49.604Z,40.50
2019-04-30T08:12:26.277Z,43.90
2019-04-30T08:14:49.574Z,46.53
2019-04-30T08:17:18.911Z,51.53
2019-04-30T08:19:48.994Z,49.90
2019-04-30T08:22:19.601Z,43.37
2019-04-30T08:24:49.157Z,49.50
2019-04-30T08:27:19.708Z,46.33
2019-04-30T08:29:49.923Z,45.40
2019-04-30T08:32:19.405Z,48.50
2019-04-30T08:34:50.113Z,52.43
2019-04-30T08:37:20.213Z,44.83
2019-04-30T08:39:49.814Z,51.03
2019-04-30T08:42:28.993Z,54.30
2019-04-30T08:44:49.470Z,47.03
2019-04-30T08:47:21.170Z,54.30
2019-04-30T08:49:50.165Z,50.60
2019-04-30T08:52:19.960Z,48.17
2019-04-30T08:54:49.607Z,56.10
2019-04-30T08:57:19.417Z,58.40
2019-04-30T08:59:49.467Z,48.23
2019-04-30T09:02:19.761Z,51.90
2019-04-30T09:04:52.833Z,49.60
2019-04-30T09:07:21.739Z,47.83
2019-04-30T09:09:50.508Z,55.57
2019-04-30T09:12:19.842Z,50.50
2019-04-30T09:14:49.156Z,47.17
2019-04-30T09:17:19.916Z,54.43
2019-04-30T09:19:49.173Z,50.30
2019-04-30T09:22:19.462Z,49.97
2019-04-30T09:24:49.772Z,50.83
2019-04-30T09:27:19.562Z,49.50
2019-04-30T09:29:49.162Z,44.83
2019-04-30T09:32:19.352Z,50.67
2019-04-30T09:34:48.812Z,44.27
2019-04-30T09:37:18.681Z,46.23
2019-04-30T09:39:49.437Z,45.03
2019-04-30T09:42:19.626Z,38.47
2019-04-30T09:44:49.367Z,38.87
2019-04-30T09:47:20.073Z,38.03
2019-04-30T09:49:49.558Z,31.40
2019-04-30T09:52:19.443Z,35.27
2019-04-30T09:54:50.021Z,34.90
2019-04-30T09:57:19.628Z,32.70
2019-04-30T09:59:48.764Z,30.67
2019-04-30T10:02:19.075Z,33.33
2019-04-30T10:04:48.765Z,30.03
2019-04-30T10:07:19.524Z,35.03
2019-04-30T10:09:50.674Z,27.53
2019-04-30T10:12:19.724Z,34.80
2019-04-30T10:14:49.495Z,40.03
2019-04-30T10:17:33.624Z,37.53
2019-04-30T10:20:02.549Z,42.80
2019-04-30T10:22:31.357Z,36.43
2019-04-30T10:25:00.666Z,38.77
2019-04-30T10:27:29.719Z,41.60
2019-04-30T10:29:59.371Z,40.77
2019-04-30T10:32:30.002Z,45.00
2019-04-30T10:34:58.973Z,38.97
2019-04-30T10:37:28.816Z,41.60
2019-04-30T10:39:59.751Z,43.27
2019-04-30T10:42:28.983Z,40.70
2019-04-30T10:45:00.050Z,40.40
2019-04-30T10:47:29.370Z,43.27
2019-04-30T10:49:59.380Z,39.43
2019-04-30T10:52:29.284Z,39.77
2019-04-30T10:54:59.557Z,43.93
2019-04-30T10:57:28.584Z,41.00
2019-04-30T10:59:58.679Z,39.60
2019-04-30T11:02:28.744Z,41.67
2019-04-30T11:04:58.824Z,36.00
2019-04-30T11:07:28.826Z,43.80
2019-04-30T11:09:58.861Z,42.17
2019-04-30T11:12:29.198Z,36.63
2019-04-30T11:14:58.197Z,37.83
2019-04-30T11:17:27.664Z,35.80
2019-04-30T11:19:59.183Z,41.73
2019-04-30T11:22:28.333Z,43.73
2019-04-30T11:25:01.981Z,39.03
2019-04-30T11:27:30.333Z,37.60
2019-04-30T11:30:03.225Z,36.87
2019-04-30T11:32:29.454Z,38.77
2019-04-30T11:34:58.655Z,36.80
2019-04-30T11:37:27.529Z,36.53
2019-04-30T11:39:56.463Z,40.30
2019-04-30T11:42:25.509Z,39.43
2019-04-30T11:44:54.363Z,39.60
2019-04-30T11:47:36.212Z,41.87
2019-04-30T11:50:11.537Z,39.80
2019-04-30T11:52:40.402Z,37.77
2019-04-30T11:55:10.206Z,35.73
2019-04-30T11:57:39.846Z,40.53
2019-04-30T12:00:13.832Z,43.37
2019-04-30T12:02:43.275Z,45.50
2019-04-30T12:05:15.411Z,42.60
2019-04-30T12:07:55.941Z,48.50
2019-04-30T12:10:48.105Z,43.60
2019-04-30T12:13:27.183Z,43.73
2019-04-30T12:15:56.396Z,39.77
2019-04-30T12:18:25.337Z,45.20
2019-04-30T12:20:54.542Z,39.77
2019-04-30T12:23:23.700Z,40.97
2019-04-30T12:25:53.024Z,40.37
2019-04-30T12:28:21.999Z,43.73
2019-04-30T12:30:51.102Z,37.60
2019-04-30T12:33:19.913Z,39.60
2019-04-30T12:35:51.165Z,41.87
2019-04-30T12:38:19.464Z,41.30
2019-04-30T12:40:48.480Z,36.67
2019-04-30T12:43:17.422Z,35.33
2019-04-30T12:45:46.414Z,35.73
2019-04-30T12:48:20.852Z,40.03
2019-04-30T12:51:09.133Z,38.67
2019-04-30T12:53:48.296Z,36.93
2019-04-30T12:56:30.043Z,33.63
2019-04-30T12:58:58.844Z,39.95
2019-04-30T13:01:31.776Z,32.53
2019-04-30T13:04:01.397Z,35.48
2019-04-30T13:06:29.886Z,35.00
2019-04-30T13:09:01.289Z,35.28
2019-04-30T13:11:31.360Z,32.50
2019-04-30T13:14:01.326Z,37.15
2019-04-30T13:16:30.354Z,39.60
2019-04-30T13:18:59.421Z,41.80
2019-04-30T13:21:28.579Z,35.98
2019-04-30T13:23:57.730Z,34.30
2019-04-30T13:26:28.498Z,34.18
2019-04-30T13:29:01.879Z,31.55
2019-04-30T13:31:30.756Z,33.05
2019-04-30T13:34:33.869Z,35.80
2019-04-30T13:37:03.089Z,35.83
2019-04-30T13:39:49.481Z,39.00
2019-04-30T13:42:24.052Z,33.23
2019-04-30T13:44:52.944Z,31.63
2019-04-30T13:47:21.761Z,29.00
2019-04-30T13:49:50.578Z,32.30
2019-04-30T13:52:19.549Z,32.98
2019-04-30T13:54:48.656Z,26.80
2019-04-30T13:57:17.475Z,25.40
2019-04-30T13:59:46.379Z,28.73
2019-04-30T14:02:15.558Z,24.27
2019-04-30T14:04:50.688Z,26.23
2019-04-30T14:07:44.773Z,28.13
2019-04-30T14:10:14.204Z,26.05
2019-04-30T14:12:49.166Z,24.00
2019-04-30T14:15:19.191Z,22.37
2019-04-30T14:17:49.427Z,29.95
2019-04-30T14:20:18.388Z,28.53
2019-04-30T14:22:47.233Z,25.87
2019-04-30T14:25:17.639Z,22.43
2019-04-30T14:27:52.208Z,21.60
2019-04-30T14:30:19.194Z,23.00
2019-04-30T14:32:50.568Z,24.90
2019-04-30T14:35:18.991Z,20.37
2019-04-30T14:37:49.607Z,21.73
2019-04-30T14:40:20.227Z,20.88
2019-04-30T14:42:56.007Z,20.15
2019-04-30T14:45:38.526Z,19.90
2019-04-30T14:48:17.876Z,23.30
2019-04-30T14:50:48.991Z,19.45
2019-04-30T14:53:30.512Z,19.52
2019-04-30T14:56:19.642Z,17.45
2019-04-30T14:59:19.736Z,18.40
2019-04-30T15:01:52.648Z,21.70
2019-04-30T15:04:22.088Z,24.12
2019-04-30T15:06:51.190Z,23.83
2019-04-30T15:09:20.542Z,22.15
2019-04-30T15:11:49.638Z,24.27
2019-04-30T15:14:18.773Z,24.90
2019-04-30T15:16:47.712Z,26.57
2019-04-30T15:19:16.786Z,22.93
2019-04-30T15:21:45.804Z,28.25
2019-04-30T15:24:29.294Z,27.60
2019-04-30T15:26:58.308Z,22.70
2019-04-30T15:29:29.079Z,24.43
2019-04-30T15:31:59.297Z,27.73
2019-04-30T15:34:29.322Z,21.20
2019-04-30T15:36:59.144Z,23.07
2019-04-30T15:39:36.440Z,21.82
2019-04-30T15:42:05.620Z,22.95
2019-04-30T15:44:40.042Z,22.50
2019-04-30T15:47:05.941Z,22.98
2019-04-30T15:49:35.094Z,20.72
2019-04-30T15:52:04.489Z,23.32
2019-04-30T15:54:33.920Z,21.15
2019-04-30T15:57:03.144Z,19.82
2019-04-30T15:59:42.174Z,22.22
2019-04-30T16:02:53.599Z,20.45
2019-04-30T16:05:28.495Z,17.23
2019-04-30T16:08:06.661Z,19.87
2019-04-30T16:10:51.453Z,20.02
2019-04-30T16:13:22.178Z,19.82
2019-04-30T16:15:51.048Z,19.95
2019-04-30T16:18:19.989Z,19.98
2019-04-30T16:20:49.851Z,20.23
2019-04-30T16:23:19.208Z,20.05
2019-04-30T16:25:48.416Z,18.75
2019-04-30T16:28:19.468Z,18.17
2019-04-30T16:30:48.122Z,18.73
2019-04-30T16:33:17.264Z,16.35
2019-04-30T16:35:46.097Z,17.98
2019-04-30T16:38:15.077Z,16.07
2019-04-30T16:40:43.884Z,18.05
2019-04-30T16:43:13.058Z,14.98
2019-04-30T16:45:41.923Z,18.42
2019-04-30T16:48:12.083Z,19.50
2019-04-30T16:50:41.073Z,26.45
2019-04-30T16:53:10.625Z,20.85
2019-04-30T16:55:39.875Z,20.17
2019-04-30T16:58:09.592Z,20.62
2019-04-30T17:00:39.360Z,21.05
2019-04-30T17:03:15.177Z,20.60
2019-04-30T17:05:52.604Z,20.68
2019-04-30T17:08:44.938Z,22.85
2019-04-30T17:11:18.520Z,19.82
2019-04-30T17:13:54.656Z,22.60
2019-04-30T17:16:24.092Z,26.23
2019-04-30T17:18:53.031Z,22.80
2019-04-30T17:21:22.015Z,22.27
2019-04-30T17:23:51.258Z,24.30
2019-04-30T17:26:20.432Z,23.70
2019-04-30T17:28:49.904Z,23.10
2019-04-30T17:31:19.099Z,25.27
2019-04-30T17:33:47.901Z,32.03
2019-04-30T17:36:18.677Z,26.53
2019-04-30T17:38:47.417Z,31.57
2019-04-30T17:41:16.296Z,26.70
2019-04-30T17:43:45.120Z,35.33
2019-04-30T17:46:14.223Z,41.87
2019-04-30T17:48:43.324Z,81.83
2019-04-30T17:51:12.485Z,67.87
2019-04-30T17:54:00.359Z,56.47
2019-04-30T17:56:29.322Z,57.13
2019-04-30T17:58:58.128Z,46.80
2019-04-30T18:01:28.264Z,40.30
2019-04-30T18:03:58.804Z,32.60
2019-04-30T18:06:27.916Z,38.90
2019-04-30T18:08:56.810Z,41.97
2019-04-30T18:11:25.703Z,49.57
2019-04-30T18:13:54.543Z,29.20
2019-04-30T18:16:23.604Z,30.40
2019-04-30T18:19:08.881Z,24.63
2019-04-30T18:21:41.642Z,24.53
2019-04-30T18:24:19.532Z,26.77
2019-04-30T18:26:56.526Z,25.57
2019-04-30T18:29:25.329Z,31.40
2019-04-30T18:31:54.230Z,29.77
2019-04-30T18:34:23.289Z,24.63
2019-04-30T18:36:52.105Z,27.73
2019-04-30T18:39:21.398Z,24.37
2019-04-30T18:41:50.255Z,24.07
2019-04-30T18:44:19.641Z,28.90
2019-04-30T18:46:49.136Z,46.43
2019-04-30T18:49:18.769Z,34.60
2019-04-30T18:51:49.251Z,28.40
2019-04-30T18:54:20.906Z,28.63
2019-04-30T18:56:49.124Z,46.20
2019-04-30T18:59:19.611Z,74.60
2019-04-30T19:01:48.817Z,45.83
2019-04-30T19:04:18.909Z,28.33
2019-04-30T19:06:48.254Z,27.17
2019-04-30T19:09:40.148Z,35.50
2019-04-30T19:12:23.545Z,32.33
2019-04-30T19:15:14.991Z,30.87
2019-04-30T19:18:18.582Z,32.77
2019-04-30T19:20:50.363Z,31.60
2019-04-30T19:23:19.203Z,48.20
2019-04-30T19:25:48.634Z,45.23
2019-04-30T19:28:18.878Z,40.17
2019-04-30T19:30:55.844Z,38.07
2019-04-30T19:33:18.397Z,29.97
2019-04-30T19:35:50.385Z,53.27
2019-04-30T19:38:18.102Z,61.60
2019-04-30T19:40:46.977Z,53.17
2019-04-30T19:43:15.861Z,36.63
2019-04-30T19:45:44.957Z,36.37
2019-04-30T19:48:16.085Z,36.67
2019-04-30T19:50:44.887Z,30.03
2019-04-30T19:53:14.045Z,33.03
2019-04-30T19:55:42.928Z,31.27
2019-04-30T19:58:25.073Z,34.63
2019-04-30T20:00:42.452Z,33.63
2019-04-30T20:03:11.439Z,34.90
2019-04-30T20:05:40.371Z,32.63
2019-04-30T20:08:11.091Z,34.80
2019-04-30T20:10:40.166Z,32.13
2019-04-30T20:13:10.767Z,31.33
2019-04-30T20:15:39.913Z,41.97
2019-04-30T20:18:09.089Z,40.33
2019-04-30T20:20:39.871Z,37.83
2019-04-30T20:23:08.820Z,35.97
2019-04-30T20:25:37.733Z,38.33
2019-04-30T20:28:06.768Z,39.57
2019-04-30T20:30:35.747Z,37.00
2019-04-30T20:33:04.894Z,37.87
2019-04-30T20:35:33.973Z,37.30
2019-04-30T20:38:20.832Z,38.47
2019-04-30T20:40:59.679Z,39.97
2019-04-30T20:43:21.757Z,37.57
2019-04-30T20:45:50.702Z,41.93
2019-04-30T20:48:19.810Z,35.33
2019-04-30T20:50:48.772Z,38.63
2019-04-30T20:53:19.671Z,42.77
2019-04-30T20:55:49.523Z,39.70
2019-04-30T20:58:18.950Z,39.03
2019-04-30T21:01:00.510Z,48.07
2019-04-30T21:03:19.689Z,42.73
2019-04-30T21:05:48.643Z,40.50
2019-04-30T21:08:17.764Z,53.80
2019-04-30T21:10:46.568Z,62.23
2019-04-30T21:13:15.498Z,55.90
2019-04-30T21:15:45.269Z,44.63
2019-04-30T21:18:14.153Z,44.47
2019-04-30T21:20:44.385Z,39.37
2019-04-30T21:23:13.507Z,37.77
2019-04-30T21:25:42.479Z,41.03
2019-04-30T21:28:11.698Z,41.87
2019-04-30T21:30:40.657Z,39.97
2019-04-30T21:33:28.631Z,45.00
2019-04-30T21:36:10.137Z,40.83
2019-04-30T21:38:39.208Z,46.13
2019-04-30T21:41:09.957Z,43.20
2019-04-30T21:43:38.667Z,42.00
2019-04-30T21:46:09.386Z,55.03
2019-04-30T21:48:38.850Z,51.77
2019-04-30T21:51:09.435Z,42.90
2019-04-30T21:53:39.594Z,44.67
2019-04-30T21:56:08.783Z,42.47
2019-04-30T21:58:39.249Z,52.80
2019-04-30T22:01:27.012Z,65.63
2019-04-30T22:03:56.241Z,72.03
2019-04-30T22:06:25.144Z,57.00
2019-04-30T22:08:54.564Z,55.70
2019-04-30T22:11:23.601Z,65.27
2019-04-30T22:13:52.402Z,74.83
2019-04-30T22:16:21.553Z,74.07
2019-04-30T22:18:50.616Z,77.60
2019-04-30T22:21:19.505Z,59.33
2019-04-30T22:23:48.501Z,52.27
2019-04-30T22:26:17.305Z,42.63
2019-04-30T22:28:46.174Z,40.60
2019-04-30T22:31:15.457Z,42.93
2019-04-30T22:33:44.338Z,42.30
2019-04-30T22:36:36.486Z,35.60
2019-04-30T22:39:14.413Z,38.63
2019-04-30T22:41:43.276Z,36.03
2019-04-30T22:44:12.182Z,28.20
2019-04-30T22:46:40.964Z,26.43
2019-04-30T22:49:09.865Z,24.17
2019-04-30T22:51:38.953Z,26.60
2019-04-30T22:54:08.063Z,27.83
2019-04-30T22:56:36.848Z,26.50
2019-04-30T22:59:05.954Z,22.13
2019-04-30T23:01:52.822Z,25.33
2019-04-30T23:04:36.502Z,28.27
2019-04-30T23:07:05.612Z,29.70
2019-04-30T23:09:35.084Z,22.70
2019-04-30T23:12:04.656Z,24.53
2019-04-30T23:14:33.470Z,23.77
2019-04-30T23:17:02.550Z,19.77
2019-04-30T23:19:31.383Z,21.43
2019-04-30T23:22:00.296Z,22.60
2019-04-30T23:24:29.073Z,27.97
2019-04-30T23:26:57.958Z,30.73
2019-04-30T23:29:26.815Z,42.87
2019-04-30T23:31:55.598Z,37.83
2019-04-30T23:34:24.394Z,39.20
2019-04-30T23:36:53.373Z,33.57
2019-04-30T23:39:22.565Z,27.80
2019-04-30T23:41:51.351Z,23.87
2019-04-30T23:44:20.434Z,27.30
2019-04-30T23:46:49.245Z,31.67
2019-04-30T23:49:18.032Z,29.57
2019-04-30T23:51:46.927Z,28.57
2019-04-30T23:54:15.775Z,22.93
2019-04-30T23:56:44.600Z,25.53
2019-04-30T23:59:13.644Z,25.77
